createdAt,value
2018-05-16T00:02:18.363Z,97542.38
2018-05-16T00:04:47.762Z,97540.63
2018-05-16T00:07:15.949Z,97539.17
2018-05-16T00:09:45.020Z,97538.11
2018-05-16T00:12:13.219Z,97535.97
2018-05-16T00:14:42.391Z,97534.22
2018-05-16T00:17:11.394Z,97537.95
2018-05-16T00:19:40.415Z,97532.62
2018-05-16T00:22:08.668Z,97531.14
2018-05-16T00:24:36.935Z,97532.48
2018-05-16T00:27:06.088Z,97529.43
2018-05-16T00:29:35.071Z,97525.05
2018-05-16T00:32:03.363Z,97520.88
2018-05-16T00:34:32.392Z,97516.98
2018-05-16T00:37:01.394Z,97514.58
2018-05-16T00:39:29.639Z,97516.05
2018-05-16T00:41:57.877Z,97518.97
2018-05-16T00:44:26.136Z,97518.57
2018-05-16T00:46:54.452Z,97529.50
2018-05-16T00:49:23.483Z,97521.78
2018-05-16T00:51:51.723Z,97527.11
2018-05-16T00:54:21.576Z,97535.89
2018-05-16T00:56:49.811Z,97540.33
2018-05-16T00:59:18.049Z,97537.38
2018-05-16T01:01:47.063Z,97540.72
2018-05-16T01:04:15.317Z,97539.66
2018-05-16T01:06:43.524Z,97536.19
2018-05-16T01:09:11.799Z,97533.92
2018-05-16T01:11:40.224Z,97525.38
2018-05-16T01:14:08.364Z,97518.03
2018-05-16T01:16:37.432Z,97531.66
2018-05-16T01:19:05.669Z,97530.57
2018-05-16T01:21:33.895Z,97529.66
2018-05-16T01:24:02.205Z,97537.27
2018-05-16T01:26:30.472Z,97533.37
2018-05-16T01:28:59.579Z,97528.57
2018-05-16T01:31:27.841Z,97529.52
2018-05-16T01:33:56.079Z,97531.10
2018-05-16T01:36:24.332Z,97536.72
2018-05-16T01:38:53.334Z,97531.52
2018-05-16T01:41:21.590Z,97527.06
2018-05-16T01:43:49.923Z,97528.30
2018-05-16T01:46:19.350Z,97540.05
2018-05-16T01:49:05.891Z,97537.91
2018-05-16T01:51:34.171Z,97542.97
2018-05-16T01:54:02.432Z,97553.42
2018-05-16T01:56:31.508Z,97550.88
2018-05-16T01:58:59.750Z,97554.33
2018-05-16T02:01:28.008Z,97558.22
2018-05-16T02:03:56.272Z,97562.50
2018-05-16T02:06:25.329Z,97557.56
2018-05-16T02:08:54.958Z,97559.69
2018-05-16T02:11:23.949Z,97553.29
2018-05-16T02:13:52.207Z,97559.02
2018-05-16T02:16:20.459Z,97555.92
2018-05-16T02:18:48.715Z,97541.38
2018-05-16T02:21:17.754Z,97536.81
2018-05-16T02:23:45.987Z,97526.27
2018-05-16T02:26:14.242Z,97516.23
2018-05-16T02:28:42.584Z,97511.83
2018-05-16T02:31:12.412Z,97513.42
2018-05-16T02:33:41.835Z,97510.08
2018-05-16T02:36:10.859Z,97517.68
2018-05-16T02:38:39.061Z,97516.72
2018-05-16T02:41:08.825Z,97534.97
2018-05-16T02:43:37.132Z,97525.89
2018-05-16T02:46:06.237Z,97529.11
2018-05-16T02:48:35.208Z,97515.52
2018-05-16T02:51:03.485Z,97507.51
2018-05-16T02:53:31.718Z,97499.66
2018-05-16T02:56:00.875Z,97502.05
2018-05-16T02:58:29.109Z,97491.10
2018-05-16T03:00:57.358Z,97494.72
2018-05-16T03:03:25.599Z,97497.34
2018-05-16T03:05:54.630Z,97500.39
2018-05-16T03:08:22.868Z,97503.87
2018-05-16T03:10:51.141Z,97506.14
2018-05-16T03:13:19.383Z,97499.19
2018-05-16T03:15:47.631Z,97506.83
2018-05-16T03:18:15.887Z,97502.16
2018-05-16T03:20:44.141Z,97503.34
2018-05-16T03:23:13.173Z,97498.16
2018-05-16T03:25:42.211Z,97505.91
2018-05-16T03:28:10.479Z,97508.30
2018-05-16T03:30:38.839Z,97521.11
2018-05-16T03:33:07.874Z,97514.29
2018-05-16T03:35:36.131Z,97515.09
2018-05-16T03:38:05.162Z,97517.38
2018-05-16T03:40:33.413Z,97518.16
2018-05-16T03:43:02.436Z,97515.90
2018-05-16T03:45:31.416Z,97517.25
2018-05-16T03:48:00.960Z,97518.31
2018-05-16T03:50:29.966Z,97517.20
2018-05-16T03:52:59.066Z,97516.05
2018-05-16T03:55:28.073Z,97513.09
2018-05-16T03:58:18.317Z,97509.10
2018-05-16T04:01:04.532Z,97504.04
2018-05-16T04:03:51.055Z,97509.09
2018-05-16T04:06:19.332Z,97508.97
2018-05-16T04:08:48.423Z,97506.30
2018-05-16T04:11:17.520Z,97503.13
2018-05-16T04:13:46.546Z,97508.31
2018-05-16T04:16:14.792Z,97504.56
2018-05-16T04:18:43.046Z,97501.87
2018-05-16T04:21:11.310Z,97503.09
2018-05-16T04:23:39.542Z,97508.39
2018-05-16T04:26:08.546Z,97510.81
2018-05-16T04:28:38.352Z,97512.19
2018-05-16T04:31:06.597Z,97510.33
2018-05-16T04:33:36.359Z,97507.42
2018-05-16T04:36:04.600Z,97511.26
2018-05-16T04:38:32.866Z,97506.32
2018-05-16T04:41:01.126Z,97500.08
2018-05-16T04:43:29.383Z,97505.84
2018-05-16T04:45:58.977Z,97507.00
2018-05-16T04:48:27.239Z,97504.34
2018-05-16T04:50:55.441Z,97509.00
2018-05-16T04:53:24.519Z,97504.23
2018-05-16T04:55:52.867Z,97511.27
2018-05-16T04:58:21.904Z,97507.29
2018-05-16T05:00:50.151Z,97510.36
2018-05-16T05:03:18.411Z,97505.17
2018-05-16T05:05:46.748Z,97501.16
2018-05-16T05:08:15.846Z,97510.09
2018-05-16T05:10:44.861Z,97501.83
2018-05-16T05:13:13.971Z,97503.69
2018-05-16T05:15:42.987Z,97509.99
2018-05-16T05:18:11.300Z,97504.36
2018-05-16T05:20:39.490Z,97501.58
2018-05-16T05:23:07.751Z,97500.61
2018-05-16T05:25:36.746Z,97515.06
2018-05-16T05:28:05.786Z,97500.66
2018-05-16T05:30:34.090Z,97498.66
2018-05-16T05:33:03.260Z,97491.56
2018-05-16T05:35:32.238Z,97495.58
2018-05-16T05:38:00.654Z,97492.28
2018-05-16T05:40:29.660Z,97499.89
2018-05-16T05:42:58.687Z,97496.83
2018-05-16T05:45:26.934Z,97501.23
2018-05-16T05:47:55.287Z,97497.77
2018-05-16T05:50:23.535Z,97493.12
2018-05-16T05:52:52.639Z,97483.08
2018-05-16T05:55:21.648Z,97490.29
2018-05-16T05:57:50.667Z,97494.56
2018-05-16T06:00:18.915Z,97482.38
2018-05-16T06:02:47.247Z,97488.84
2018-05-16T06:05:16.239Z,97488.83
2018-05-16T06:07:45.350Z,97486.55
2018-05-16T06:10:14.938Z,97484.55
2018-05-16T06:12:43.269Z,97485.63
2018-05-16T06:15:11.449Z,97485.36
2018-05-16T06:17:40.459Z,97489.48
2018-05-16T06:20:09.558Z,97489.20
2018-05-16T06:22:38.521Z,97495.09
2018-05-16T06:25:07.606Z,97483.73
2018-05-16T06:27:35.851Z,97486.92
2018-05-16T06:30:04.895Z,97482.48
2018-05-16T06:32:33.147Z,97485.40
2018-05-16T06:35:01.400Z,97478.33
2018-05-16T06:37:29.610Z,97480.38
2018-05-16T06:39:57.920Z,97473.44
2018-05-16T06:42:27.295Z,97475.09
2018-05-16T06:44:55.547Z,97468.70
2018-05-16T06:47:23.791Z,97476.27
2018-05-16T06:49:52.106Z,97475.22
2018-05-16T06:52:21.211Z,97480.56
2018-05-16T06:54:50.227Z,97481.97
2018-05-16T06:57:19.249Z,97486.14
2018-05-16T06:59:48.340Z,97485.34
2018-05-16T07:02:17.941Z,97491.97
2018-05-16T07:04:46.202Z,97488.77
2018-05-16T07:07:14.398Z,97494.20
2018-05-16T07:09:43.447Z,97495.08
2018-05-16T07:12:11.688Z,97502.98
2018-05-16T07:14:39.909Z,97505.98
2018-05-16T07:17:08.186Z,97511.50
2018-05-16T07:19:36.494Z,97516.30
2018-05-16T07:22:05.495Z,97511.22
2018-05-16T07:24:34.523Z,97509.00
2018-05-16T07:27:02.801Z,97503.74
2018-05-16T07:29:31.831Z,97507.05
2018-05-16T07:32:00.080Z,97509.39
2018-05-16T07:34:28.326Z,97511.93
2018-05-16T07:36:56.567Z,97517.00
2018-05-16T07:39:25.628Z,97518.67
2018-05-16T07:41:53.871Z,97517.28
2018-05-16T07:44:22.903Z,97515.10
2018-05-16T07:46:51.143Z,97512.19
2018-05-16T07:49:19.398Z,97513.28
2018-05-16T07:51:47.638Z,97514.77
2018-05-16T07:54:16.667Z,97518.20
2018-05-16T07:56:44.899Z,97522.91
2018-05-16T07:59:13.158Z,97528.09
2018-05-16T08:01:41.354Z,97529.30
2018-05-16T08:04:09.647Z,97541.18
2018-05-16T08:06:37.882Z,97535.67
2018-05-16T08:09:06.909Z,97538.77
2018-05-16T08:11:35.148Z,97540.36
2018-05-16T08:14:03.492Z,97544.24
2018-05-16T08:16:31.739Z,97542.96
2018-05-16T08:19:00.055Z,97548.38
2018-05-16T08:21:29.168Z,97551.06
2018-05-16T08:23:58.164Z,97556.64
2018-05-16T08:26:27.185Z,97545.99
2018-05-16T08:28:55.419Z,97553.85
2018-05-16T08:31:23.700Z,97553.25
2018-05-16T08:33:51.936Z,97554.68
2018-05-16T08:36:20.954Z,97553.22
2018-05-16T08:38:49.956Z,97558.03
2018-05-16T08:41:21.271Z,97557.60
2018-05-16T08:43:49.527Z,97560.95
2018-05-16T08:46:17.790Z,97564.07
2018-05-16T08:48:46.788Z,97564.98
2018-05-16T08:51:15.039Z,97561.22
2018-05-16T08:53:44.053Z,97570.47
2018-05-16T08:56:13.075Z,97566.59
2018-05-16T08:58:41.274Z,97567.64
2018-05-16T09:01:09.553Z,97568.02
2018-05-16T09:03:38.607Z,97569.91
2018-05-16T09:06:06.858Z,97573.92
2018-05-16T09:08:35.099Z,97564.30
2018-05-16T09:11:03.364Z,97572.84
2018-05-16T09:13:31.623Z,97571.41
2018-05-16T09:15:59.875Z,97571.88
2018-05-16T09:18:28.079Z,97570.13
2018-05-16T09:20:57.137Z,97570.34
2018-05-16T09:23:25.346Z,97568.02
2018-05-16T09:25:53.644Z,97577.73
2018-05-16T09:28:21.842Z,97577.68
2018-05-16T09:30:50.985Z,97575.69
2018-05-16T09:33:19.156Z,97583.53
2018-05-16T09:35:47.457Z,97588.12
2018-05-16T09:38:15.688Z,97582.73
2018-05-16T09:40:43.904Z,97580.17
2018-05-16T09:43:12.905Z,97587.16
2018-05-16T09:45:41.998Z,97580.22
2018-05-16T09:48:10.968Z,97588.88
2018-05-16T09:50:40.749Z,97592.89
2018-05-16T09:53:09.750Z,97587.30
2018-05-16T09:55:38.036Z,97593.98
2018-05-16T09:58:06.283Z,97593.57
2018-05-16T10:00:35.315Z,97594.78
2018-05-16T10:03:03.571Z,97594.11
2018-05-16T10:05:32.600Z,97603.34
2018-05-16T10:08:01.261Z,97603.22
2018-05-16T10:10:29.511Z,97606.27
2018-05-16T10:12:57.748Z,97620.17
2018-05-16T10:15:26.764Z,97617.80
2018-05-16T10:17:55.771Z,97617.24
2018-05-16T10:20:24.788Z,97619.77
2018-05-16T10:22:53.024Z,97618.92
2018-05-16T10:25:21.287Z,97622.05
2018-05-16T10:27:49.492Z,97622.89
2018-05-16T10:30:18.531Z,97620.86
2018-05-16T10:32:46.778Z,97616.72
2018-05-16T10:35:15.020Z,97617.77
2018-05-16T10:37:44.026Z,97624.52
2018-05-16T10:40:13.031Z,97629.52
2018-05-16T10:42:42.043Z,97625.05
2018-05-16T10:45:11.043Z,97623.14
2018-05-16T10:47:40.075Z,97624.69
2018-05-16T10:50:08.309Z,97625.36
2018-05-16T10:52:36.729Z,97627.13
2018-05-16T10:55:04.788Z,97628.04
2018-05-16T10:57:33.837Z,97628.37
2018-05-16T11:00:02.111Z,97628.04
2018-05-16T11:02:31.126Z,97625.69
2018-05-16T11:05:00.141Z,97632.00
2018-05-16T11:07:28.367Z,97630.81
2018-05-16T11:09:56.635Z,97624.41
2018-05-16T11:12:24.886Z,97631.46
2018-05-16T11:14:53.879Z,97623.52
2018-05-16T11:17:22.133Z,97634.89
2018-05-16T11:19:50.371Z,97632.93
2018-05-16T11:22:19.391Z,97641.05
2018-05-16T11:24:48.380Z,97642.53
2018-05-16T11:27:16.638Z,97641.34
2018-05-16T11:29:45.680Z,97640.87
2018-05-16T11:32:14.662Z,97642.34
2018-05-16T11:34:42.934Z,97637.46
2018-05-16T11:37:11.193Z,97641.16
2018-05-16T11:39:39.434Z,97639.98
2018-05-16T11:42:07.709Z,97641.92
2018-05-16T11:44:36.754Z,97647.38
2018-05-16T11:49:33.095Z,97636.45
2018-05-16T11:52:01.359Z,97637.16
2018-05-16T11:54:29.598Z,97630.55
2018-05-16T11:56:58.615Z,97632.55
2018-05-16T11:59:27.579Z,97632.18
2018-05-16T12:01:56.631Z,97634.06
2018-05-16T12:04:25.643Z,97629.84
2018-05-16T12:06:54.651Z,97639.05
2018-05-16T12:09:23.604Z,97636.41
2018-05-16T12:11:52.585Z,97629.74
2018-05-16T12:14:20.835Z,97632.27
2018-05-16T12:16:49.123Z,97636.28
2018-05-16T12:19:18.140Z,97634.73
2018-05-16T12:21:47.244Z,97634.49
2018-05-16T12:24:15.391Z,97640.48
2018-05-16T12:26:43.648Z,97645.59
2018-05-16T12:29:11.921Z,97639.15
2018-05-16T12:31:40.109Z,97631.88
2018-05-16T12:34:08.387Z,97634.50
2018-05-16T12:36:37.505Z,97634.75
2018-05-16T12:39:09.180Z,97625.43
2018-05-16T12:41:38.193Z,97632.48
2018-05-16T12:44:06.446Z,97616.27
2018-05-16T12:46:35.473Z,97622.30
2018-05-16T12:49:03.737Z,97622.05
2018-05-16T12:51:31.983Z,97622.27
2018-05-16T12:54:00.226Z,97618.48
2018-05-16T12:56:29.244Z,97628.63
2018-05-16T12:58:57.540Z,97629.13
2018-05-16T13:01:26.550Z,97625.17
2018-05-16T13:03:55.521Z,97632.01
2018-05-16T13:06:23.800Z,97627.02
2018-05-16T13:08:52.052Z,97628.77
2018-05-16T13:11:20.291Z,97626.91
2018-05-16T13:13:49.646Z,97627.88
2018-05-16T13:16:17.875Z,97629.48
2018-05-16T13:18:46.547Z,97619.51
2018-05-16T13:21:15.171Z,97621.79
2018-05-16T13:23:43.652Z,97630.61
2018-05-16T13:26:11.866Z,97634.33
2018-05-16T13:28:40.889Z,97627.98
2018-05-16T13:31:09.858Z,97625.81
2018-05-16T13:33:39.283Z,97634.45
2018-05-16T13:36:07.622Z,97636.68
2018-05-16T13:38:35.779Z,97637.42
2018-05-16T13:41:05.529Z,97635.10
2018-05-16T13:43:33.760Z,97633.45
2018-05-16T13:46:02.834Z,97639.64
2018-05-16T13:48:31.085Z,97638.95
2018-05-16T13:51:00.124Z,97633.38
2018-05-16T13:53:28.434Z,97615.81
2018-05-16T13:55:57.461Z,97613.15
2018-05-16T13:58:25.707Z,97613.37
2018-05-16T14:00:53.938Z,97620.42
2018-05-16T14:03:22.190Z,97618.91
2018-05-16T14:05:50.427Z,97619.08
2018-05-16T14:08:18.682Z,97625.63
2018-05-16T14:10:48.059Z,97637.13
2018-05-16T14:13:16.315Z,97634.88
2018-05-16T14:15:44.511Z,97634.86
2018-05-16T14:18:12.806Z,97642.48
2018-05-16T14:20:41.039Z,97639.72
2018-05-16T14:23:09.263Z,97639.38
2018-05-16T14:25:38.297Z,97637.73
2018-05-16T14:28:07.311Z,97641.00
2018-05-16T14:30:36.311Z,97630.83
2018-05-16T14:33:05.414Z,97632.74
2018-05-16T14:35:34.544Z,97632.13
2018-05-16T14:38:02.820Z,97646.18
2018-05-16T14:40:31.842Z,97653.79
2018-05-16T14:43:00.143Z,97654.31
2018-05-16T14:45:29.116Z,97653.67
2018-05-16T14:47:58.155Z,97657.39
2018-05-16T14:50:26.396Z,97664.80
2018-05-16T14:52:54.647Z,97680.31
2018-05-16T14:55:22.891Z,97683.74
2018-05-16T14:57:51.891Z,97690.18
2018-05-16T15:00:20.107Z,97698.38
2018-05-16T15:02:48.348Z,97706.03
2018-05-16T15:05:17.395Z,97706.66
2018-05-16T15:07:45.628Z,97711.22
2018-05-16T15:10:14.647Z,97711.23
2018-05-16T15:12:42.884Z,97712.35
2018-05-16T15:15:11.967Z,97706.64
2018-05-16T15:17:40.971Z,97715.37
2018-05-16T15:20:10.009Z,97718.59
2018-05-16T15:22:38.248Z,97716.70
2018-05-16T15:25:06.511Z,97718.06
2018-05-16T15:27:34.738Z,97713.66
2018-05-16T15:30:03.002Z,97712.76
2018-05-16T15:32:31.210Z,97710.41
2018-05-16T15:35:00.268Z,97714.92
2018-05-16T15:37:28.507Z,97699.00
2018-05-16T15:39:56.759Z,97695.47
2018-05-16T15:42:24.962Z,97695.06
2018-05-16T15:44:53.977Z,97698.14
2018-05-16T15:47:23.016Z,97691.04
2018-05-16T15:49:52.038Z,97681.84
2018-05-16T15:52:20.276Z,97680.59
2018-05-16T15:54:48.527Z,97676.70
2018-05-16T15:57:16.764Z,97686.47
2018-05-16T15:59:45.036Z,97686.98
2018-05-16T16:02:13.259Z,97691.97
2018-05-16T16:04:43.014Z,97683.21
2018-05-16T16:07:11.251Z,97683.94
2018-05-16T16:09:39.462Z,97674.38
2018-05-16T16:12:07.760Z,97677.28
2018-05-16T16:14:36.011Z,97676.91
2018-05-16T16:17:04.249Z,97670.64
2018-05-16T16:19:32.516Z,97676.47
2018-05-16T16:22:01.587Z,97674.73
2018-05-16T16:24:29.787Z,97669.02
2018-05-16T16:26:58.024Z,97673.44
2018-05-16T16:29:26.266Z,97672.03
2018-05-16T16:31:54.503Z,97672.80
2018-05-16T16:34:22.764Z,97669.53
2018-05-16T16:36:51.767Z,97665.85
2018-05-16T16:39:20.792Z,97676.30
2018-05-16T16:41:49.031Z,97675.11
2018-05-16T16:44:18.787Z,97670.87
2018-05-16T16:46:47.022Z,97672.41
2018-05-16T16:49:15.277Z,97672.20
2018-05-16T16:51:43.507Z,97668.42
2018-05-16T16:54:11.719Z,97661.48
2018-05-16T16:56:39.987Z,97658.31
2018-05-16T16:59:08.219Z,97665.92
2018-05-16T17:01:37.240Z,97674.06
2018-05-16T17:04:05.486Z,97664.70
2018-05-16T17:06:33.726Z,97664.89
2018-05-16T17:09:01.998Z,97671.52
2018-05-16T17:11:31.037Z,97662.73
2018-05-16T17:13:59.323Z,97668.84
2018-05-16T17:16:27.519Z,97665.50
2018-05-16T17:18:55.826Z,97666.02
2018-05-16T17:21:24.073Z,97666.27
2018-05-16T17:23:52.315Z,97661.81
2018-05-16T17:26:20.574Z,97663.66
2018-05-16T17:28:48.807Z,97664.98
2018-05-16T17:31:17.064Z,97664.09
2018-05-16T17:33:46.066Z,97666.58
2018-05-16T17:36:14.327Z,97665.49
2018-05-16T17:38:42.566Z,97665.69
2018-05-16T17:41:10.884Z,97667.61
2018-05-16T17:43:39.891Z,97668.28
2018-05-16T17:46:08.926Z,97669.93
2018-05-16T17:48:37.143Z,97672.12
2018-05-16T17:51:05.395Z,97676.31
2018-05-16T17:53:33.633Z,97666.42
2018-05-16T17:56:01.883Z,97665.95
2018-05-16T17:58:30.099Z,97677.93
2018-05-16T18:00:59.131Z,97668.55
2018-05-16T18:03:27.390Z,97666.48
2018-05-16T18:05:55.667Z,97670.90
2018-05-16T18:08:23.911Z,97684.70
2018-05-16T18:10:52.892Z,97688.99
2018-05-16T18:16:56.682Z,97685.55
2018-05-16T18:19:24.886Z,97688.89
2018-05-16T18:21:53.142Z,97698.53
2018-05-16T18:24:21.379Z,97699.08
2018-05-16T18:26:49.642Z,97691.20
2018-05-16T18:29:17.892Z,97688.38
2018-05-16T18:31:46.142Z,97700.30
2018-05-16T18:34:14.370Z,97697.09
2018-05-16T18:36:42.623Z,97704.05
2018-05-16T18:39:10.855Z,97705.50
2018-05-16T18:41:39.111Z,97709.78
2018-05-16T18:44:07.359Z,97716.59
2018-05-16T18:46:36.384Z,97725.70
2018-05-16T18:49:04.620Z,97721.27
2018-05-16T18:51:32.882Z,97718.34
2018-05-16T18:54:01.123Z,97721.82
2018-05-16T18:56:30.139Z,97722.60
2018-05-16T18:58:58.340Z,97732.66
2018-05-16T19:01:26.635Z,97720.73
2018-05-16T19:03:54.886Z,97722.50
2018-05-16T19:06:23.909Z,97725.02
2018-05-16T19:08:52.255Z,97729.02
2018-05-16T19:11:20.401Z,97731.67
2018-05-16T19:13:48.675Z,97732.88
2018-05-16T19:16:17.725Z,97735.39
2018-05-16T19:18:45.953Z,97743.03
2018-05-16T19:21:14.980Z,97736.33
2018-05-16T19:23:44.032Z,97743.92
2018-05-16T19:26:12.471Z,97747.78
2018-05-16T19:28:41.471Z,97746.98
2018-05-16T19:31:10.859Z,97749.45
2018-05-16T19:33:39.095Z,97753.71
2018-05-16T19:36:07.370Z,97757.69
2018-05-16T19:38:36.375Z,97761.55
2018-05-16T19:41:05.419Z,97761.80
2018-05-16T19:43:33.667Z,97759.69
2018-05-16T19:46:02.789Z,97771.70
2018-05-16T19:48:30.965Z,97766.08
2018-05-16T19:50:59.979Z,97779.09
2018-05-16T19:53:29.367Z,97777.76
2018-05-16T19:55:57.568Z,97784.72
2018-05-16T19:58:25.972Z,97781.39
2018-05-16T20:00:54.971Z,97786.45
2018-05-16T20:03:23.993Z,97786.36
2018-05-16T20:05:52.956Z,97789.81
2018-05-16T20:08:21.976Z,97784.06
2018-05-16T20:10:50.261Z,97787.88
2018-05-16T20:13:18.510Z,97790.14
2018-05-16T20:15:46.759Z,97797.95
2018-05-16T20:18:15.778Z,97792.85
2018-05-16T20:20:44.015Z,97784.92
2018-05-16T20:23:12.287Z,97792.88
2018-05-16T20:25:40.528Z,97792.35
2018-05-16T20:28:09.544Z,97797.13
2018-05-16T20:30:38.512Z,97797.60
2018-05-16T20:33:07.577Z,97786.75
2018-05-16T20:35:36.943Z,97784.56
2018-05-16T20:38:06.021Z,97775.58
2018-05-16T20:40:34.247Z,97785.03
2018-05-16T20:43:02.502Z,97778.72
2018-05-16T20:45:30.743Z,97777.25
2018-05-16T20:48:00.115Z,97783.98
2018-05-16T20:50:29.749Z,97784.52
2018-05-16T20:52:57.969Z,97785.48
2018-05-16T20:55:26.250Z,97791.06
2018-05-16T20:57:55.267Z,97794.71
2018-05-16T21:00:23.531Z,97794.53
2018-05-16T21:02:51.794Z,97798.77
2018-05-16T21:05:20.050Z,97811.69
2018-05-16T21:07:49.059Z,97817.67
2018-05-16T21:10:17.298Z,97816.69
2018-05-16T21:12:45.555Z,97817.15
2018-05-16T21:15:13.795Z,97816.00
2018-05-16T21:17:42.823Z,97813.97
2018-05-16T21:20:11.050Z,97818.43
2018-05-16T21:22:39.312Z,97818.48
2018-05-16T21:25:07.550Z,97818.89
2018-05-16T21:27:35.802Z,97818.02
2018-05-16T21:30:04.035Z,97807.86
2018-05-16T21:32:33.079Z,97808.55
2018-05-16T21:35:01.332Z,97818.14
2018-05-16T21:37:29.842Z,97824.86
2018-05-16T21:39:58.852Z,97828.81
2018-05-16T21:42:27.870Z,97825.73
2018-05-16T21:44:56.125Z,97828.86
2018-05-16T21:47:24.368Z,97823.41
2018-05-16T21:49:52.644Z,97814.27
2018-05-16T21:52:20.887Z,97809.10
2018-05-16T21:54:49.887Z,97808.45
2018-05-16T21:57:18.143Z,97816.47
2018-05-16T21:59:46.413Z,97811.66
2018-05-16T22:02:14.647Z,97817.40
2018-05-16T22:04:42.903Z,97813.07
2018-05-16T22:07:11.131Z,97815.73
2018-05-16T22:09:39.396Z,97822.89
2018-05-16T22:12:07.634Z,97810.23
2018-05-16T22:14:35.901Z,97811.05
2018-05-16T22:17:04.137Z,97807.61
2018-05-16T22:19:32.461Z,97809.55
2018-05-16T22:22:00.659Z,97814.09
2018-05-16T22:24:28.921Z,97810.25
2018-05-16T22:26:57.151Z,97810.53
2018-05-16T22:29:25.429Z,97807.25
2018-05-16T22:31:59.087Z,97805.27
2018-05-16T22:34:33.022Z,97803.69
2018-05-16T22:37:06.724Z,97804.91
2018-05-16T22:39:40.624Z,97800.38
2018-05-16T22:42:15.531Z,97796.45
2018-05-16T22:44:48.654Z,97792.13
2018-05-16T22:47:16.967Z,97794.39
2018-05-16T22:49:46.078Z,97794.79
2018-05-16T22:52:15.705Z,97792.16
2018-05-16T22:54:43.933Z,97789.56
2018-05-16T22:57:13.005Z,97782.66
2018-05-16T22:59:41.270Z,97784.11
2018-05-16T23:02:10.283Z,97778.81
2018-05-16T23:04:39.357Z,97776.88
2018-05-16T23:07:07.598Z,97769.67
2018-05-16T23:09:35.831Z,97770.92
2018-05-16T23:12:04.846Z,97771.77
2018-05-16T23:14:33.937Z,97771.92
2018-05-16T23:17:02.175Z,97767.51
2018-05-16T23:19:31.235Z,97771.27
2018-05-16T23:21:59.575Z,97758.44
2018-05-16T23:24:28.591Z,97771.11
2018-05-16T23:26:57.621Z,97770.15
2018-05-16T23:29:25.978Z,97771.89
2018-05-16T23:31:54.942Z,97764.69
2018-05-16T23:34:23.979Z,97771.48
2018-05-16T23:36:52.962Z,97768.13
2018-05-16T23:39:22.004Z,97766.48
2018-05-16T23:41:51.018Z,97761.26
2018-05-16T23:44:19.246Z,97760.33
2018-05-16T23:46:48.268Z,97765.51
2018-05-16T23:49:16.462Z,97769.19
2018-05-16T23:51:44.745Z,97772.06
2018-05-16T23:54:12.977Z,97769.98
2018-05-16T23:56:41.231Z,97776.51
2018-05-16T23:59:09.474Z,97769.19
